Aviation Digital Data Service (ADDS)

Output produced by METARs form (0057 UTC 19 August 2019)
found at http://www.aviationweather.gov/metar/data/
 
METAR text: EKVG 190050Z AUTO 35018KT 9999 BKN006/// BKN026/// BKN074/// 11/10 Q0991
Conditions at: EKVG (SORVAAG/VAGAR , DK) observed 0050 UTC 19 August 2019
Temperature: 11.0°C (52°F)
Dewpoint: 10.0°C (50°F) [RH = 94%]
Pressure (altimeter): 29.26 inches Hg (991.0 mb)
Winds: from the N (350 degrees) at 21 MPH (18 knots; 9.3 m/s)
Visibility: 6 or more miles (10+ km)
Ceiling: 600 feet AGL
Clouds: broken clouds at 600 feet AGL
broken clouds at 2600 feet AGL
broken clouds at 7400 feet AGL
Weather: no significant weather observed at this time

METAR text: EKVG 190020Z AUTO 35012KT 8000 BKN007/// 11/10 Q0991
Conditions at: EKVG (SORVAAG/VAGAR , DK) observed 0020 UTC 19 August 2019
Temperature: 11.0°C (52°F)
Dewpoint: 10.0°C (50°F) [RH = 94%]
Pressure (altimeter): 29.26 inches Hg (991.0 mb)
Winds: from the N (350 degrees) at 14 MPH (12 knots; 6.2 m/s)
Visibility: 5 miles ( 8 km)
Ceiling: 700 feet AGL
Clouds: broken clouds at 700 feet AGL
Weather: no significant weather observed at this time

METAR text: EKVG 182350Z AUTO 34007KT 290V360 6000 OVC008/// 11/10 Q0991
Conditions at: EKVG (SORVAAG/VAGAR , DK) observed 2350 UTC 18 August 2019
Temperature: 11.0°C (52°F)
Dewpoint: 10.0°C (50°F) [RH = 94%]
Pressure (altimeter): 29.26 inches Hg (991.0 mb)
Winds: from the NNW (340 degrees) at 8 MPH (7 knots; 3.6 m/s)
Visibility: 4 miles ( 6 km)
Ceiling: 800 feet AGL
Clouds: overcast cloud deck at 800 feet AGL
Weather: no significant weather observed at this time

METAR text: EKVG 182320Z AUTO 33009KT 9000 SCT010/// BKN021/// BKN043/// 11/10 Q0991
Conditions at: EKVG (SORVAAG/VAGAR , DK) observed 2320 UTC 18 August 2019
Temperature: 11.0°C (52°F)
Dewpoint: 10.0°C (50°F) [RH = 94%]
Pressure (altimeter): 29.26 inches Hg (991.0 mb)
Winds: from the NNW (330 degrees) at 10 MPH (9 knots; 4.6 m/s)
Visibility: 6 miles ( 9 km)
Ceiling: 2100 feet AGL
Clouds: scattered clouds at 1000 feet AGL
broken clouds at 2100 feet AGL
broken clouds at 4300 feet AGL
Weather: no significant weather observed at this time

METAR text: EKVG 182250Z AUTO 33008KT 290V360 9999 BKN007/// OVC035/// 11/10 Q0991
Conditions at: EKVG (SORVAAG/VAGAR , DK) observed 2250 UTC 18 August 2019
Temperature: 11.0°C (52°F)
Dewpoint: 10.0°C (50°F) [RH = 94%]
Pressure (altimeter): 29.26 inches Hg (991.0 mb)
Winds: from the NNW (330 degrees) at 9 MPH (8 knots; 4.1 m/s)
Visibility: 6 or more miles (10+ km)
Ceiling: 700 feet AGL
Clouds: broken clouds at 700 feet AGL
overcast cloud deck at 3500 feet AGL
Weather: no significant weather observed at this time

METAR text: EKVG 182220Z AUTO 32009KT 9000 FEW018/// OVC036/// 11/10 Q0991
Conditions at: EKVG (SORVAAG/VAGAR , DK) observed 2220 UTC 18 August 2019
Temperature: 11.0°C (52°F)
Dewpoint: 10.0°C (50°F) [RH = 94%]
Pressure (altimeter): 29.26 inches Hg (991.0 mb)
Winds: from the NW (320 degrees) at 10 MPH (9 knots; 4.6 m/s)
Visibility: 6 miles ( 9 km)
Ceiling: 3600 feet AGL
Clouds: few clouds at 1800 feet AGL
overcast cloud deck at 3600 feet AGL
Weather: no significant weather observed at this time

METAR text: EKVG 182150Z AUTO 32008KT 9999 FEW004/// BKN029/// OVC047/// 11/10 Q0990
Conditions at: EKVG (SORVAAG/VAGAR , DK) observed 2150 UTC 18 August 2019
Temperature: 11.0°C (52°F)
Dewpoint: 10.0°C (50°F) [RH = 94%]
Pressure (altimeter): 29.23 inches Hg (990.0 mb)
Winds: from the NW (320 degrees) at 9 MPH (8 knots; 4.1 m/s)
Visibility: 6 or more miles (10+ km)
Ceiling: 2900 feet AGL
Clouds: few clouds at 400 feet AGL
broken clouds at 2900 feet AGL
overcast cloud deck at 4700 feet AGL
Weather: no significant weather observed at this time

METAR text: EKVG 182120Z AUTO 32010KT 9999 SCT005/// BKN028/// BKN078/// 11/10 Q0990
Conditions at: EKVG (SORVAAG/VAGAR , DK) observed 2120 UTC 18 August 2019
Temperature: 11.0°C (52°F)
Dewpoint: 10.0°C (50°F) [RH = 94%]
Pressure (altimeter): 29.23 inches Hg (990.0 mb)
Winds: from the NW (320 degrees) at 12 MPH (10 knots; 5.1 m/s)
Visibility: 6 or more miles (10+ km)
Ceiling: 2800 feet AGL
Clouds: scattered clouds at 500 feet AGL
broken clouds at 2800 feet AGL
broken clouds at 7800 feet AGL
Weather: no significant weather observed at this time

METAR text: EKVG 182050Z AUTO 32008KT 8000 SCT001/// BKN032/// 11/10 Q0990
Conditions at: EKVG (SORVAAG/VAGAR , DK) observed 2050 UTC 18 August 2019
Temperature: 11.0°C (52°F)
Dewpoint: 10.0°C (50°F) [RH = 94%]
Pressure (altimeter): 29.23 inches Hg (990.0 mb)
Winds: from the NW (320 degrees) at 9 MPH (8 knots; 4.1 m/s)
Visibility: 5 miles ( 8 km)
Ceiling: 3200 feet AGL
Clouds: scattered clouds at 100 feet AGL
broken clouds at 3200 feet AGL
Weather: no significant weather observed at this time

METAR text: EKVG 182020Z AUTO 32007KT 4000 BR BKN001/// 11/11 Q0990
Conditions at: EKVG (SORVAAG/VAGAR , DK) observed 2020 UTC 18 August 2019
Temperature: 11.0°C (52°F)
Dewpoint: 11.0°C (52°F) [RH = 100%]
Pressure (altimeter): 29.23 inches Hg (990.0 mb)
Winds: from the NW (320 degrees) at 8 MPH (7 knots; 3.6 m/s)
Visibility: 2.49 miles (4.01 km)
Ceiling: 100 feet AGL
Clouds: broken clouds at 100 feet AGL
Weather: BR  (mist)

METAR text: EKVG 181950Z AUTO 33008KT 4000 BR BKN001/// OVC018/// 11/11 Q0989
Conditions at: EKVG (SORVAAG/VAGAR , DK) observed 1950 UTC 18 August 2019
Temperature: 11.0°C (52°F)
Dewpoint: 11.0°C (52°F) [RH = 100%]
Pressure (altimeter): 29.20 inches Hg (989.0 mb)
Winds: from the NNW (330 degrees) at 9 MPH (8 knots; 4.1 m/s)
Visibility: 2.49 miles (4.01 km)
Ceiling: 100 feet AGL
Clouds: broken clouds at 100 feet AGL
overcast cloud deck at 1800 feet AGL
Weather: BR  (mist)

METAR text: EKVG 181920Z AUTO 32008KT 2900 BR SCT001/// BKN018/// BKN041/// 11/11 Q0989
Conditions at: EKVG (SORVAAG/VAGAR , DK) observed 1920 UTC 18 August 2019
Temperature: 11.0°C (52°F)
Dewpoint: 11.0°C (52°F) [RH = 100%]
Pressure (altimeter): 29.20 inches Hg (989.0 mb)
Winds: from the NW (320 degrees) at 9 MPH (8 knots; 4.1 m/s)
Visibility: 1.80 miles (2.90 km)
Ceiling: 1800 feet AGL
Clouds: scattered clouds at 100 feet AGL
broken clouds at 1800 feet AGL
broken clouds at 4100 feet AGL
Weather: BR  (mist)

METAR text: EKVG 181850Z AUTO 32008KT 9999 FEW005/// FEW018/// BKN031/// BKN041/// 11/11 Q0989
Conditions at: EKVG (SORVAAG/VAGAR , DK) observed 1850 UTC 18 August 2019
Temperature: 11.0°C (52°F)
Dewpoint: 11.0°C (52°F) [RH = 100%]
Pressure (altimeter): 29.20 inches Hg (989.0 mb)
Winds: from the NW (320 degrees) at 9 MPH (8 knots; 4.1 m/s)
Visibility: 6 or more miles (10+ km)
Ceiling: 3100 feet AGL
Clouds: few clouds at 500 feet AGL
few clouds at 1800 feet AGL
broken clouds at 3100 feet AGL
broken clouds at 4100 feet AGL
Weather: no significant weather observed at this time

METAR text: EKVG 181820Z AUTO 30005KT 9999 FEW004/// BKN040/// 11/11 Q0989
Conditions at: EKVG (SORVAAG/VAGAR , DK) observed 1820 UTC 18 August 2019
Temperature: 11.0°C (52°F)
Dewpoint: 11.0°C (52°F) [RH = 100%]
Pressure (altimeter): 29.20 inches Hg (989.0 mb)
Winds: from the WNW (300 degrees) at 6 MPH (5 knots; 2.6 m/s)
Visibility: 6 or more miles (10+ km)
Ceiling: 4000 feet AGL
Clouds: few clouds at 400 feet AGL
broken clouds at 4000 feet AGL
Weather: no significant weather observed at this time

METAR text: EKVG 181750Z AUTO 30006KT 9999 FEW005/// BKN052/// 11/11 Q0989
Conditions at: EKVG (SORVAAG/VAGAR , DK) observed 1750 UTC 18 August 2019
Temperature: 11.0°C (52°F)
Dewpoint: 11.0°C (52°F) [RH = 100%]
Pressure (altimeter): 29.20 inches Hg (989.0 mb)
Winds: from the WNW (300 degrees) at 7 MPH (6 knots; 3.1 m/s)
Visibility: 6 or more miles (10+ km)
Ceiling: 5200 feet AGL
Clouds: few clouds at 500 feet AGL
broken clouds at 5200 feet AGL
Weather: no significant weather observed at this time

METAR text: EKVG 181720Z AUTO 29005KT 250V360 9999 SCT004/// SCT006/// OVC015/// 11/11 Q0989
Conditions at: EKVG (SORVAAG/VAGAR , DK) observed 1720 UTC 18 August 2019
Temperature: 11.0°C (52°F)
Dewpoint: 11.0°C (52°F) [RH = 100%]
Pressure (altimeter): 29.20 inches Hg (989.0 mb)
Winds: from the WNW (290 degrees) at 6 MPH (5 knots; 2.6 m/s)
Visibility: 6 or more miles (10+ km)
Ceiling: 1500 feet AGL
Clouds: scattered clouds at 400 feet AGL
scattered clouds at 600 feet AGL
overcast cloud deck at 1500 feet AGL
Weather: no significant weather observed at this time

METAR text: EKVG 181650Z AUTO 27008KT 9999 SCT003/// BKN058/// 11/11 Q0989
Conditions at: EKVG (SORVAAG/VAGAR , DK) observed 1650 UTC 18 August 2019
Temperature: 11.0°C (52°F)
Dewpoint: 11.0°C (52°F) [RH = 100%]
Pressure (altimeter): 29.20 inches Hg (989.0 mb)
Winds: from the W (270 degrees) at 9 MPH (8 knots; 4.1 m/s)
Visibility: 6 or more miles (10+ km)
Ceiling: 5800 feet AGL
Clouds: scattered clouds at 300 feet AGL
broken clouds at 5800 feet AGL
Weather: no significant weather observed at this time

METAR text: EKVG 181620Z AUTO 28008KT 9999 FEW019/// FEW034/// BKN043/// 11/11 Q0989
Conditions at: EKVG (SORVAAG/VAGAR , DK) observed 1620 UTC 18 August 2019
Temperature: 11.0°C (52°F)
Dewpoint: 11.0°C (52°F) [RH = 100%]
Pressure (altimeter): 29.20 inches Hg (989.0 mb)
Winds: from the W (280 degrees) at 9 MPH (8 knots; 4.1 m/s)
Visibility: 6 or more miles (10+ km)
Ceiling: 4300 feet AGL
Clouds: few clouds at 1900 feet AGL
few clouds at 3400 feet AGL
broken clouds at 4300 feet AGL
Weather: no significant weather observed at this time

METAR text: EKVG 181550Z AUTO 29009KT 9999 FEW009/// FEW023/// BKN033/// BKN051/// 11/11 Q0989
Conditions at: EKVG (SORVAAG/VAGAR , DK) observed 1550 UTC 18 August 2019
Temperature: 11.0°C (52°F)
Dewpoint: 11.0°C (52°F) [RH = 100%]
Pressure (altimeter): 29.20 inches Hg (989.0 mb)
Winds: from the WNW (290 degrees) at 10 MPH (9 knots; 4.6 m/s)
Visibility: 6 or more miles (10+ km)
Ceiling: 3300 feet AGL
Clouds: few clouds at 900 feet AGL
few clouds at 2300 feet AGL
broken clouds at 3300 feet AGL
broken clouds at 5100 feet AGL
Weather: no significant weather observed at this time

METAR text: EKVG 181520Z AUTO 29008KT 9999 FEW003/// BKN026/// BKN074/// 12/11 Q0989
Conditions at: EKVG (SORVAAG/VAGAR , DK) observed 1520 UTC 18 August 2019
Temperature: 12.0°C (54°F)
Dewpoint: 11.0°C (52°F) [RH = 94%]
Pressure (altimeter): 29.20 inches Hg (989.0 mb)
Winds: from the WNW (290 degrees) at 9 MPH (8 knots; 4.1 m/s)
Visibility: 6 or more miles (10+ km)
Ceiling: 2600 feet AGL
Clouds: few clouds at 300 feet AGL
broken clouds at 2600 feet AGL
broken clouds at 7400 feet AGL
Weather: no significant weather observed at this time

METAR text: EKVG 181450Z AUTO 29009KT 9999 SCT008/// BKN028/// 12/11 Q0989
Conditions at: EKVG (SORVAAG/VAGAR , DK) observed 1450 UTC 18 August 2019
Temperature: 12.0°C (54°F)
Dewpoint: 11.0°C (52°F) [RH = 94%]
Pressure (altimeter): 29.20 inches Hg (989.0 mb)
Winds: from the WNW (290 degrees) at 10 MPH (9 knots; 4.6 m/s)
Visibility: 6 or more miles (10+ km)
Ceiling: 2800 feet AGL
Clouds: scattered clouds at 800 feet AGL
broken clouds at 2800 feet AGL
Weather: no significant weather observed at this time

METAR text: EKVG 181420Z AUTO 29008KT 9999 BKN009/// BKN058/// 13/12 Q0988
Conditions at: EKVG (SORVAAG/VAGAR , DK) observed 1420 UTC 18 August 2019
Temperature: 13.0°C (55°F)
Dewpoint: 12.0°C (54°F) [RH = 94%]
Pressure (altimeter): 29.17 inches Hg (988.0 mb)
Winds: from the WNW (290 degrees) at 9 MPH (8 knots; 4.1 m/s)
Visibility: 6 or more miles (10+ km)
Ceiling: 900 feet AGL
Clouds: broken clouds at 900 feet AGL
broken clouds at 5800 feet AGL
Weather: no significant weather observed at this time

METAR text: EKVG 181350Z AUTO 29005KT 9999 BKN007/// BKN022/// BKN060/// 13/12 Q0988
Conditions at: EKVG (SORVAAG/VAGAR , DK) observed 1350 UTC 18 August 2019
Temperature: 13.0°C (55°F)
Dewpoint: 12.0°C (54°F) [RH = 94%]
Pressure (altimeter): 29.17 inches Hg (988.0 mb)
Winds: from the WNW (290 degrees) at 6 MPH (5 knots; 2.6 m/s)
Visibility: 6 or more miles (10+ km)
Ceiling: 700 feet AGL
Clouds: broken clouds at 700 feet AGL
broken clouds at 2200 feet AGL
broken clouds at 6000 feet AGL
Weather: no significant weather observed at this time

METAR text: EKVG 181320Z AUTO 29004KT 260V320 9999 FEW023/// BKN064/// 12/11 Q0988
Conditions at: EKVG (SORVAAG/VAGAR , DK) observed 1320 UTC 18 August 2019
Temperature: 12.0°C (54°F)
Dewpoint: 11.0°C (52°F) [RH = 94%]
Pressure (altimeter): 29.17 inches Hg (988.0 mb)
Winds: from the WNW (290 degrees) at 5 MPH (4 knots; 2.1 m/s)
Visibility: 6 or more miles (10+ km)
Ceiling: 6400 feet AGL
Clouds: few clouds at 2300 feet AGL
broken clouds at 6400 feet AGL
Weather: no significant weather observed at this time

METAR text: EKVG 181250Z AUTO 33009KT 9999 FEW003/// BKN021/// 12/11 Q0988
Conditions at: EKVG (SORVAAG/VAGAR , DK) observed 1250 UTC 18 August 2019
Temperature: 12.0°C (54°F)
Dewpoint: 11.0°C (52°F) [RH = 94%]
Pressure (altimeter): 29.17 inches Hg (988.0 mb)
Winds: from the NNW (330 degrees) at 10 MPH (9 knots; 4.6 m/s)
Visibility: 6 or more miles (10+ km)
Ceiling: 2100 feet AGL
Clouds: few clouds at 300 feet AGL
broken clouds at 2100 feet AGL
Weather: no significant weather observed at this time

METAR text: EKVG 181220Z AUTO 33010KT 9999 FEW018/// BKN026/// BKN062/// 12/11 Q0988
Conditions at: EKVG (SORVAAG/VAGAR , DK) observed 1220 UTC 18 August 2019
Temperature: 12.0°C (54°F)
Dewpoint: 11.0°C (52°F) [RH = 94%]
Pressure (altimeter): 29.17 inches Hg (988.0 mb)
Winds: from the NNW (330 degrees) at 12 MPH (10 knots; 5.1 m/s)
Visibility: 6 or more miles (10+ km)
Ceiling: 2600 feet AGL
Clouds: few clouds at 1800 feet AGL
broken clouds at 2600 feet AGL
broken clouds at 6200 feet AGL
Weather: no significant weather observed at this time

METAR text: EKVG 181150Z AUTO 33009KT 9999 SCT028/// BKN051/// 12/11 Q0988
Conditions at: EKVG (SORVAAG/VAGAR , DK) observed 1150 UTC 18 August 2019
Temperature: 12.0°C (54°F)
Dewpoint: 11.0°C (52°F) [RH = 94%]
Pressure (altimeter): 29.17 inches Hg (988.0 mb)
Winds: from the NNW (330 degrees) at 10 MPH (9 knots; 4.6 m/s)
Visibility: 6 or more miles (10+ km)
Ceiling: 5100 feet AGL
Clouds: scattered clouds at 2800 feet AGL
broken clouds at 5100 feet AGL
Weather: no significant weather observed at this time

METAR text: EKVG 181120Z AUTO 34010KT 8000 DZ BKN028/// 12/11 Q0988
Conditions at: EKVG (SORVAAG/VAGAR , DK) observed 1120 UTC 18 August 2019
Temperature: 12.0°C (54°F)
Dewpoint: 11.0°C (52°F) [RH = 94%]
Pressure (altimeter): 29.17 inches Hg (988.0 mb)
Winds: from the NNW (340 degrees) at 12 MPH (10 knots; 5.1 m/s)
Visibility: 5 miles ( 8 km)
Ceiling: 2800 feet AGL
Clouds: broken clouds at 2800 feet AGL
Weather: DZ  (moderate drizzle)

METAR text: EKVG 181050Z AUTO 34011KT 9999 BKN016/// 12/11 Q0988
Conditions at: EKVG (SORVAAG/VAGAR , DK) observed 1050 UTC 18 August 2019
Temperature: 12.0°C (54°F)
Dewpoint: 11.0°C (52°F) [RH = 94%]
Pressure (altimeter): 29.17 inches Hg (988.0 mb)
Winds: from the NNW (340 degrees) at 13 MPH (11 knots; 5.7 m/s)
Visibility: 6 or more miles (10+ km)
Ceiling: 1600 feet AGL
Clouds: broken clouds at 1600 feet AGL
Weather: no significant weather observed at this time

METAR text: EKVG 181020Z AUTO 34011KT 9999 BKN015/// 12/11 Q0988
Conditions at: EKVG (SORVAAG/VAGAR , DK) observed 1020 UTC 18 August 2019
Temperature: 12.0°C (54°F)
Dewpoint: 11.0°C (52°F) [RH = 94%]
Pressure (altimeter): 29.17 inches Hg (988.0 mb)
Winds: from the NNW (340 degrees) at 13 MPH (11 knots; 5.7 m/s)
Visibility: 6 or more miles (10+ km)
Ceiling: 1500 feet AGL
Clouds: broken clouds at 1500 feet AGL
Weather: no significant weather observed at this time

METAR text: EKVG 180950Z AUTO 34009KT 9999 OVC011/// 12/11 Q0988
Conditions at: EKVG (SORVAAG/VAGAR , DK) observed 0950 UTC 18 August 2019
Temperature: 12.0°C (54°F)
Dewpoint: 11.0°C (52°F) [RH = 94%]
Pressure (altimeter): 29.17 inches Hg (988.0 mb)
Winds: from the NNW (340 degrees) at 10 MPH (9 knots; 4.6 m/s)
Visibility: 6 or more miles (10+ km)
Ceiling: 1100 feet AGL
Clouds: overcast cloud deck at 1100 feet AGL
Weather: no significant weather observed at this time

METAR text: EKVG 180920Z AUTO 34010KT 9999 BKN015/// BKN080/// 12/11 Q0988
Conditions at: EKVG (SORVAAG/VAGAR , DK) observed 0920 UTC 18 August 2019
Temperature: 12.0°C (54°F)
Dewpoint: 11.0°C (52°F) [RH = 94%]
Pressure (altimeter): 29.17 inches Hg (988.0 mb)
Winds: from the NNW (340 degrees) at 12 MPH (10 knots; 5.1 m/s)
Visibility: 6 or more miles (10+ km)
Ceiling: 1500 feet AGL
Clouds: broken clouds at 1500 feet AGL
broken clouds at 8000 feet AGL
Weather: no significant weather observed at this time

METAR text: EKVG 180850Z AUTO 34010KT 9999 BKN014/// BKN030/// 12/11 Q0987
Conditions at: EKVG (SORVAAG/VAGAR , DK) observed 0850 UTC 18 August 2019
Temperature: 12.0°C (54°F)
Dewpoint: 11.0°C (52°F) [RH = 94%]
Pressure (altimeter): 29.14 inches Hg (987.0 mb)
Winds: from the NNW (340 degrees) at 12 MPH (10 knots; 5.1 m/s)
Visibility: 6 or more miles (10+ km)
Ceiling: 1400 feet AGL
Clouds: broken clouds at 1400 feet AGL
broken clouds at 3000 feet AGL
Weather: no significant weather observed at this time

METAR text: EKVG 180820Z AUTO 34010KT 9999 SCT008/// BKN027/// 12/11 Q0987
Conditions at: EKVG (SORVAAG/VAGAR , DK) observed 0820 UTC 18 August 2019
Temperature: 12.0°C (54°F)
Dewpoint: 11.0°C (52°F) [RH = 94%]
Pressure (altimeter): 29.14 inches Hg (987.0 mb)
Winds: from the NNW (340 degrees) at 12 MPH (10 knots; 5.1 m/s)
Visibility: 6 or more miles (10+ km)
Ceiling: 2700 feet AGL
Clouds: scattered clouds at 800 feet AGL
broken clouds at 2700 feet AGL
Weather: no significant weather observed at this time

METAR text: EKVG 180750Z AUTO 35008KT 9999 FEW011/// BKN012/// 12/12 Q0987
Conditions at: EKVG (SORVAAG/VAGAR , DK) observed 0750 UTC 18 August 2019
Temperature: 12.0°C (54°F)
Dewpoint: 12.0°C (54°F) [RH = 100%]
Pressure (altimeter): 29.14 inches Hg (987.0 mb)
Winds: from the N (350 degrees) at 9 MPH (8 knots; 4.1 m/s)
Visibility: 6 or more miles (10+ km)
Ceiling: 1200 feet AGL
Clouds: few clouds at 1100 feet AGL
broken clouds at 1200 feet AGL
Weather: no significant weather observed at this time

METAR text: EKVG 180720Z AUTO 34008KT 9999 FEW005/// OVC008/// 11/11 Q0987
Conditions at: EKVG (SORVAAG/VAGAR , DK) observed 0720 UTC 18 August 2019
Temperature: 11.0°C (52°F)
Dewpoint: 11.0°C (52°F) [RH = 100%]
Pressure (altimeter): 29.14 inches Hg (987.0 mb)
Winds: from the NNW (340 degrees) at 9 MPH (8 knots; 4.1 m/s)
Visibility: 6 or more miles (10+ km)
Ceiling: 800 feet AGL
Clouds: few clouds at 500 feet AGL
overcast cloud deck at 800 feet AGL
Weather: no significant weather observed at this time

METAR text: EKVG 180650Z AUTO 31006KT 260V350 0600 R12/P1500U R30/P1500U BCFG BKN006/// BKN033/// 11/11 Q0987
Conditions at: EKVG (SORVAAG/VAGAR , DK) observed 0650 UTC 18 August 2019
Temperature: 11.0°C (52°F)
Dewpoint: 11.0°C (52°F) [RH = 100%]
Pressure (altimeter): 29.14 inches Hg (987.0 mb)
Winds: from the NW (310 degrees) at 7 MPH (6 knots; 3.1 m/s)
Visibility: 0.37 miles (0.60 km)
Ceiling: 600 feet AGL
Clouds: broken clouds at 600 feet AGL
broken clouds at 3300 feet AGL
Weather: BCFG  (patches of fog)

METAR text: EKVG 180620Z AUTO 00000KT 9999 BKN001/// BKN032/// 11/11 Q0987
Conditions at: EKVG (SORVAAG/VAGAR , DK) observed 0620 UTC 18 August 2019
Temperature: 11.0°C (52°F)
Dewpoint: 11.0°C (52°F) [RH = 100%]
Pressure (altimeter): 29.14 inches Hg (987.0 mb)
Winds: calm
Visibility: 6 or more miles (10+ km)
Ceiling: 100 feet AGL
Clouds: broken clouds at 100 feet AGL
broken clouds at 3200 feet AGL
Weather: no significant weather observed at this time

METAR text: EKVG 180550Z AUTO VRB01KT 9999 R12/0500N R30/P1500N OVC001/// 10/10 Q0987
Conditions at: EKVG (SORVAAG/VAGAR , DK) observed 0550 UTC 18 August 2019
Temperature: 10.0°C (50°F)
Dewpoint: 10.0°C (50°F) [RH = 100%]
Pressure (altimeter): 29.14 inches Hg (987.0 mb)
Winds: variable direction winds at 1 MPH (1 knots; 0.5 m/s)
Visibility: 6 or more miles (10+ km)
Ceiling: 100 feet AGL
Clouds: overcast cloud deck at 100 feet AGL
Weather: no significant weather observed at this time

METAR text: EKVG 180520Z AUTO 28004KT 0150 R12/0500N R30/1100U FG VV003 10/10 Q0987
Conditions at: EKVG (SORVAAG/VAGAR , DK) observed 0520 UTC 18 August 2019
Temperature: 10.0°C (50°F)
Dewpoint: 10.0°C (50°F) [RH = 100%]
Pressure (altimeter): 29.14 inches Hg (987.0 mb)
Winds: from the W (280 degrees) at 5 MPH (4 knots; 2.1 m/s)
Visibility: 0.09 miles (0.14 km)
Ceiling: indefinite ceiling with vertical visibility of 300 feet AGL
Clouds: obscured sky
Weather: FG  (fog)

METAR text: EKVG 180450Z AUTO 29003KT 0150 R12/0500N R30/0700D FG VV003 10/10 Q0987
Conditions at: EKVG (SORVAAG/VAGAR , DK) observed 0450 UTC 18 August 2019
Temperature: 10.0°C (50°F)
Dewpoint: 10.0°C (50°F) [RH = 100%]
Pressure (altimeter): 29.14 inches Hg (987.0 mb)
Winds: from the WNW (290 degrees) at 3 MPH (3 knots; 1.5 m/s)
Visibility: 0.09 miles (0.14 km)
Ceiling: indefinite ceiling with vertical visibility of 300 feet AGL
Clouds: obscured sky
Weather: FG  (fog)

METAR text: EKVG 180420Z AUTO 30005KT 0100 R12/0500N R30/0700N FG VV002 10/10 Q0987
Conditions at: EKVG (SORVAAG/VAGAR , DK) observed 0420 UTC 18 August 2019
Temperature: 10.0°C (50°F)
Dewpoint: 10.0°C (50°F) [RH = 100%]
Pressure (altimeter): 29.14 inches Hg (987.0 mb)
Winds: from the WNW (300 degrees) at 6 MPH (5 knots; 2.6 m/s)
Visibility: 0.06 miles (0.10 km)
Ceiling: indefinite ceiling with vertical visibility of 200 feet AGL
Clouds: obscured sky
Weather: FG  (fog)

METAR text: EKVG 180350Z AUTO 29002KT 0150 R12/0650N R30/1400D FG VV003 10/10 Q0987
Conditions at: EKVG (SORVAAG/VAGAR , DK) observed 0350 UTC 18 August 2019
Temperature: 10.0°C (50°F)
Dewpoint: 10.0°C (50°F) [RH = 100%]
Pressure (altimeter): 29.14 inches Hg (987.0 mb)
Winds: from the WNW (290 degrees) at 2 MPH (2 knots; 1.0 m/s)
Visibility: 0.09 miles (0.14 km)
Ceiling: indefinite ceiling with vertical visibility of 300 feet AGL
Clouds: obscured sky
Weather: FG  (fog)

METAR text: EKVG 180320Z AUTO 29001KT 0150 R12/0650U R30/0900U FG VV002 10/10 Q0987
Conditions at: EKVG (SORVAAG/VAGAR , DK) observed 0320 UTC 18 August 2019
Temperature: 10.0°C (50°F)
Dewpoint: 10.0°C (50°F) [RH = 100%]
Pressure (altimeter): 29.14 inches Hg (987.0 mb)
Winds: from the WNW (290 degrees) at 1 MPH (1 knots; 0.5 m/s)
Visibility: 0.09 miles (0.14 km)
Ceiling: indefinite ceiling with vertical visibility of 200 feet AGL
Clouds: obscured sky
Weather: FG  (fog)

METAR text: EKVG 180250Z AUTO VRB02KT 0150 R12/0550N R30/1300D FG VV002 10/10 Q0987
Conditions at: EKVG (SORVAAG/VAGAR , DK) observed 0250 UTC 18 August 2019
Temperature: 10.0°C (50°F)
Dewpoint: 10.0°C (50°F) [RH = 100%]
Pressure (altimeter): 29.14 inches Hg (987.0 mb)
Winds: variable direction winds at 2 MPH (2 knots; 1.0 m/s)
Visibility: 0.09 miles (0.14 km)
Ceiling: indefinite ceiling with vertical visibility of 200 feet AGL
Clouds: obscured sky
Weather: FG  (fog)

METAR text: EKVG 180220Z AUTO 15002KT 9999 R12/P1500N R30/1400D BKN001/// 11/11 Q0987
Conditions at: EKVG (SORVAAG/VAGAR , DK) observed 0220 UTC 18 August 2019
Temperature: 11.0°C (52°F)
Dewpoint: 11.0°C (52°F) [RH = 100%]
Pressure (altimeter): 29.14 inches Hg (987.0 mb)
Winds: from the SSE (150 degrees) at 2 MPH (2 knots; 1.0 m/s)
Visibility: 6 or more miles (10+ km)
Ceiling: 100 feet AGL
Clouds: broken clouds at 100 feet AGL
Weather: no significant weather observed at this time

METAR text: EKVG 180150Z AUTO 14003KT 9999 FEW004/// FEW005/// BKN024/// 11/11 Q0987
Conditions at: EKVG (SORVAAG/VAGAR , DK) observed 0150 UTC 18 August 2019
Temperature: 11.0°C (52°F)
Dewpoint: 11.0°C (52°F) [RH = 100%]
Pressure (altimeter): 29.14 inches Hg (987.0 mb)
Winds: from the SE (140 degrees) at 3 MPH (3 knots; 1.5 m/s)
Visibility: 6 or more miles (10+ km)
Ceiling: 2400 feet AGL
Clouds: few clouds at 400 feet AGL
few clouds at 500 feet AGL
broken clouds at 2400 feet AGL
Weather: no significant weather observed at this time

METAR text: EKVG 180120Z AUTO 15004KT 0400 R12/P1500U R30/1300U FG OVC002/// 11/11 Q0987
Conditions at: EKVG (SORVAAG/VAGAR , DK) observed 0120 UTC 18 August 2019
Temperature: 11.0°C (52°F)
Dewpoint: 11.0°C (52°F) [RH = 100%]
Pressure (altimeter): 29.14 inches Hg (987.0 mb)
Winds: from the SSE (150 degrees) at 5 MPH (4 knots; 2.1 m/s)
Visibility: 0.25 miles (0.40 km)
Ceiling: 200 feet AGL
Clouds: overcast cloud deck at 200 feet AGL
Weather: FG  (fog)

METAR text: EKVG 180050Z AUTO 15004KT 0350 R12/1200U R30/P1500D -DZ FG OVC001/// 11/11 Q0987
Conditions at: EKVG (SORVAAG/VAGAR , DK) observed 0050 UTC 18 August 2019
Temperature: 11.0°C (52°F)
Dewpoint: 11.0°C (52°F) [RH = 100%]
Pressure (altimeter): 29.14 inches Hg (987.0 mb)
Winds: from the SSE (150 degrees) at 5 MPH (4 knots; 2.1 m/s)
Visibility: 0.22 miles (0.35 km)
Ceiling: 100 feet AGL
Clouds: overcast cloud deck at 100 feet AGL
Weather: -DZ FG  (light drizzle, fog)

METAR text: EKVG 180020Z AUTO 18003KT 0550 R12/P1500U R30/1400D FG OVC001/// 11/11 Q0987
Conditions at: EKVG (SORVAAG/VAGAR , DK) observed 0020 UTC 18 August 2019
Temperature: 11.0°C (52°F)
Dewpoint: 11.0°C (52°F) [RH = 100%]
Pressure (altimeter): 29.14 inches Hg (987.0 mb)
Winds: from the S (180 degrees) at 3 MPH (3 knots; 1.5 m/s)
Visibility: 0.34 miles (0.55 km)
Ceiling: 100 feet AGL
Clouds: overcast cloud deck at 100 feet AGL
Weather: FG  (fog)

METAR text: EKVG 172350Z AUTO 14004KT 2200 R12/P1500N R30/0900N BR OVC000/// 11/11 Q0987
Conditions at: EKVG (SORVAAG/VAGAR , DK) observed 2350 UTC 17 August 2019
Temperature: 11.0°C (52°F)
Dewpoint: 11.0°C (52°F) [RH = 100%]
Pressure (altimeter): 29.14 inches Hg (987.0 mb)
Winds: from the SE (140 degrees) at 5 MPH (4 knots; 2.1 m/s)
Visibility: 1.37 miles (2.20 km)
Ceiling: 0 feet AGL
Clouds: overcast cloud deck at 0 feet AGL
Weather: BR  (mist)

METAR text: EKVG 172320Z AUTO 14006KT 0400 R12/1300U R30/0900N FG BKN000/// BKN046/// 11/11 Q0987
Conditions at: EKVG (SORVAAG/VAGAR , DK) observed 2320 UTC 17 August 2019
Temperature: 11.0°C (52°F)
Dewpoint: 11.0°C (52°F) [RH = 100%]
Pressure (altimeter): 29.14 inches Hg (987.0 mb)
Winds: from the SE (140 degrees) at 7 MPH (6 knots; 3.1 m/s)
Visibility: 0.25 miles (0.40 km)
Ceiling: 0 feet AGL
Clouds: broken clouds at 0 feet AGL
broken clouds at 4600 feet AGL
Weather: FG  (fog)

METAR text: EKVG 172250Z AUTO 12003KT 9000 FEW000/// BKN045/// 11/11 Q0987
Conditions at: EKVG (SORVAAG/VAGAR , DK) observed 2250 UTC 17 August 2019
Temperature: 11.0°C (52°F)
Dewpoint: 11.0°C (52°F) [RH = 100%]
Pressure (altimeter): 29.14 inches Hg (987.0 mb)
Winds: from the ESE (120 degrees) at 3 MPH (3 knots; 1.5 m/s)
Visibility: 6 miles ( 9 km)
Ceiling: 4500 feet AGL
Clouds: few clouds at 0 feet AGL
broken clouds at 4500 feet AGL
Weather: no significant weather observed at this time

METAR text: EKVG 172220Z AUTO 06002KT 9999 BKN000/// BKN046/// 11/11 Q0987
Conditions at: EKVG (SORVAAG/VAGAR , DK) observed 2220 UTC 17 August 2019
Temperature: 11.0°C (52°F)
Dewpoint: 11.0°C (52°F) [RH = 100%]
Pressure (altimeter): 29.14 inches Hg (987.0 mb)
Winds: from the ENE (60 degrees) at 2 MPH (2 knots; 1.0 m/s)
Visibility: 6 or more miles (10+ km)
Ceiling: 0 feet AGL
Clouds: broken clouds at 0 feet AGL
broken clouds at 4600 feet AGL
Weather: no significant weather observed at this time

METAR text: EKVG 172150Z AUTO 26002KT 0500 R12/P1500U R30/P1500N FG BKN000/// BKN046/// 11/10 Q0987
Conditions at: EKVG (SORVAAG/VAGAR , DK) observed 2150 UTC 17 August 2019
Temperature: 11.0°C (52°F)
Dewpoint: 10.0°C (50°F) [RH = 94%]
Pressure (altimeter): 29.14 inches Hg (987.0 mb)
Winds: from the W (260 degrees) at 2 MPH (2 knots; 1.0 m/s)
Visibility: 0.31 miles (0.50 km)
Ceiling: 0 feet AGL
Clouds: broken clouds at 0 feet AGL
broken clouds at 4600 feet AGL
Weather: FG  (fog)

METAR text: EKVG 172120Z AUTO 27002KT 0150 R12/0500D R30/P1500N FG VV002 11/11 Q0987
Conditions at: EKVG (SORVAAG/VAGAR , DK) observed 2120 UTC 17 August 2019
Temperature: 11.0°C (52°F)
Dewpoint: 11.0°C (52°F) [RH = 100%]
Pressure (altimeter): 29.14 inches Hg (987.0 mb)
Winds: from the W (270 degrees) at 2 MPH (2 knots; 1.0 m/s)
Visibility: 0.09 miles (0.14 km)
Ceiling: indefinite ceiling with vertical visibility of 200 feet AGL
Clouds: obscured sky
Weather: FG  (fog)

METAR text: EKVG 172050Z AUTO 25001KT 0500 R12/P1500U R30/P1500N FG VV002 11/11 Q0987
Conditions at: EKVG (SORVAAG/VAGAR , DK) observed 2050 UTC 17 August 2019
Temperature: 11.0°C (52°F)
Dewpoint: 11.0°C (52°F) [RH = 100%]
Pressure (altimeter): 29.14 inches Hg (987.0 mb)
Winds: from the WSW (250 degrees) at 1 MPH (1 knots; 0.5 m/s)
Visibility: 0.31 miles (0.50 km)
Ceiling: indefinite ceiling with vertical visibility of 200 feet AGL
Clouds: obscured sky
Weather: FG  (fog)

METAR text: EKVG 172020Z AUTO 00000KT 0200 R12/0800U R30/P1500N FG VV002 11/11 Q0987
Conditions at: EKVG (SORVAAG/VAGAR , DK) observed 2020 UTC 17 August 2019
Temperature: 11.0°C (52°F)
Dewpoint: 11.0°C (52°F) [RH = 100%]
Pressure (altimeter): 29.14 inches Hg (987.0 mb)
Winds: calm
Visibility: 0.12 miles (0.19 km)
Ceiling: indefinite ceiling with vertical visibility of 200 feet AGL
Clouds: obscured sky
Weather: FG  (fog)

METAR text: EKVG 171950Z AUTO 27002KT 0200 R12/0500N R30/P1500N FG BKN000/// BKN039/// 11/11 Q0987
Conditions at: EKVG (SORVAAG/VAGAR , DK) observed 1950 UTC 17 August 2019
Temperature: 11.0°C (52°F)
Dewpoint: 11.0°C (52°F) [RH = 100%]
Pressure (altimeter): 29.14 inches Hg (987.0 mb)
Winds: from the W (270 degrees) at 2 MPH (2 knots; 1.0 m/s)
Visibility: 0.12 miles (0.19 km)
Ceiling: 0 feet AGL
Clouds: broken clouds at 0 feet AGL
broken clouds at 3900 feet AGL
Weather: FG  (fog)

METAR text: EKVG 171920Z AUTO 26005KT 0350 R12/0500N R30/0750U FG FEW019/// BKN033/// BKN071/// 11/11 Q0987
Conditions at: EKVG (SORVAAG/VAGAR , DK) observed 1920 UTC 17 August 2019
Temperature: 11.0°C (52°F)
Dewpoint: 11.0°C (52°F) [RH = 100%]
Pressure (altimeter): 29.14 inches Hg (987.0 mb)
Winds: from the W (260 degrees) at 6 MPH (5 knots; 2.6 m/s)
Visibility: 0.22 miles (0.35 km)
Ceiling: 3300 feet AGL
Clouds: few clouds at 1900 feet AGL
broken clouds at 3300 feet AGL
broken clouds at 7100 feet AGL
Weather: FG  (fog)

METAR text: EKVG 171850Z AUTO 27003KT 1500 R12/0600N R30/P1500D BR FEW006/// SCT026/// BKN065/// BKN100/// 12/11 Q0987
Conditions at: EKVG (SORVAAG/VAGAR , DK) observed 1850 UTC 17 August 2019
Temperature: 12.0°C (54°F)
Dewpoint: 11.0°C (52°F) [RH = 94%]
Pressure (altimeter): 29.14 inches Hg (987.0 mb)
Winds: from the W (270 degrees) at 3 MPH (3 knots; 1.5 m/s)
Visibility: 0.93 miles (1.50 km)
Ceiling: 6500 feet AGL
Clouds: few clouds at 600 feet AGL
scattered clouds at 2600 feet AGL
broken clouds at 6500 feet AGL
broken clouds at 10000 feet AGL
Weather: BR  (mist)

METAR text: EKVG 171820Z AUTO 00000KT 9999 -RA BKN055/// 12/12 Q0987
Conditions at: EKVG (SORVAAG/VAGAR , DK) observed 1820 UTC 17 August 2019
Temperature: 12.0°C (54°F)
Dewpoint: 12.0°C (54°F) [RH = 100%]
Pressure (altimeter): 29.14 inches Hg (987.0 mb)
Winds: calm
Visibility: 6 or more miles (10+ km)
Ceiling: 5500 feet AGL
Clouds: broken clouds at 5500 feet AGL
Weather: -RA  (light rain)

METAR text: EKVG 171750Z AUTO 15003KT 8000 RA FEW005/// SCT030/// 12/12 Q0987
Conditions at: EKVG (SORVAAG/VAGAR , DK) observed 1750 UTC 17 August 2019
Temperature: 12.0°C (54°F)
Dewpoint: 12.0°C (54°F) [RH = 100%]
Pressure (altimeter): 29.14 inches Hg (987.0 mb)
Winds: from the SSE (150 degrees) at 3 MPH (3 knots; 1.5 m/s)
Visibility: 5 miles ( 8 km)
Ceiling: at least 12,000 feet AGL
Clouds: few clouds at 500 feet AGL
scattered clouds at 3000 feet AGL
Weather: RA  (moderate rain)

METAR text: EKVG 171720Z AUTO 14006KT 9999 -RA BKN034/// 12/12 Q0987
Conditions at: EKVG (SORVAAG/VAGAR , DK) observed 1720 UTC 17 August 2019
Temperature: 12.0°C (54°F)
Dewpoint: 12.0°C (54°F) [RH = 100%]
Pressure (altimeter): 29.14 inches Hg (987.0 mb)
Winds: from the SE (140 degrees) at 7 MPH (6 knots; 3.1 m/s)
Visibility: 6 or more miles (10+ km)
Ceiling: 3400 feet AGL
Clouds: broken clouds at 3400 feet AGL
Weather: -RA  (light rain)

METAR text: EKVG 171650Z AUTO 13005KT 9999 -RA BKN033/// 13/12 Q0987
Conditions at: EKVG (SORVAAG/VAGAR , DK) observed 1650 UTC 17 August 2019
Temperature: 13.0°C (55°F)
Dewpoint: 12.0°C (54°F) [RH = 94%]
Pressure (altimeter): 29.14 inches Hg (987.0 mb)
Winds: from the SE (130 degrees) at 6 MPH (5 knots; 2.6 m/s)
Visibility: 6 or more miles (10+ km)
Ceiling: 3300 feet AGL
Clouds: broken clouds at 3300 feet AGL
Weather: -RA  (light rain)

METAR text: EKVG 171620Z AUTO 13005KT 9999 BKN009/// BKN036/// BKN045/// 14/13 Q0986
Conditions at: EKVG (SORVAAG/VAGAR , DK) observed 1620 UTC 17 August 2019
Temperature: 14.0°C (57°F)
Dewpoint: 13.0°C (55°F) [RH = 94%]
Pressure (altimeter): 29.11 inches Hg (986.0 mb)
Winds: from the SE (130 degrees) at 6 MPH (5 knots; 2.6 m/s)
Visibility: 6 or more miles (10+ km)
Ceiling: 900 feet AGL
Clouds: broken clouds at 900 feet AGL
broken clouds at 3600 feet AGL
broken clouds at 4500 feet AGL
Weather: no significant weather observed at this time

METAR text: EKVG 171550Z AUTO VRB02KT 9999 BKN012/// BKN034/// 14/13 Q0986
Conditions at: EKVG (SORVAAG/VAGAR , DK) observed 1550 UTC 17 August 2019
Temperature: 14.0°C (57°F)
Dewpoint: 13.0°C (55°F) [RH = 94%]
Pressure (altimeter): 29.11 inches Hg (986.0 mb)
Winds: variable direction winds at 2 MPH (2 knots; 1.0 m/s)
Visibility: 6 or more miles (10+ km)
Ceiling: 1200 feet AGL
Clouds: broken clouds at 1200 feet AGL
broken clouds at 3400 feet AGL
Weather: no significant weather observed at this time

METAR text: EKVG 171520Z AUTO 19002KT 9999 BKN008/// BKN019/// 13/12 Q0986
Conditions at: EKVG (SORVAAG/VAGAR , DK) observed 1520 UTC 17 August 2019
Temperature: 13.0°C (55°F)
Dewpoint: 12.0°C (54°F) [RH = 94%]
Pressure (altimeter): 29.11 inches Hg (986.0 mb)
Winds: from the S (190 degrees) at 2 MPH (2 knots; 1.0 m/s)
Visibility: 6 or more miles (10+ km)
Ceiling: 800 feet AGL
Clouds: broken clouds at 800 feet AGL
broken clouds at 1900 feet AGL
Weather: no significant weather observed at this time

METAR text: EKVG 171450Z AUTO VRB03KT 9999 BKN008/// BKN075/// 14/13 Q0986
Conditions at: EKVG (SORVAAG/VAGAR , DK) observed 1450 UTC 17 August 2019
Temperature: 14.0°C (57°F)
Dewpoint: 13.0°C (55°F) [RH = 94%]
Pressure (altimeter): 29.11 inches Hg (986.0 mb)
Winds: variable direction winds at 3 MPH (3 knots; 1.5 m/s)
Visibility: 6 or more miles (10+ km)
Ceiling: 800 feet AGL
Clouds: broken clouds at 800 feet AGL
broken clouds at 7500 feet AGL
Weather: no significant weather observed at this time

METAR text: EKVG 171420Z AUTO VRB01KT 9999 BKN010/// 14/13 Q0986
Conditions at: EKVG (SORVAAG/VAGAR , DK) observed 1420 UTC 17 August 2019
Temperature: 14.0°C (57°F)
Dewpoint: 13.0°C (55°F) [RH = 94%]
Pressure (altimeter): 29.11 inches Hg (986.0 mb)
Winds: variable direction winds at 1 MPH (1 knots; 0.5 m/s)
Visibility: 6 or more miles (10+ km)
Ceiling: 1000 feet AGL
Clouds: broken clouds at 1000 feet AGL
Weather: no significant weather observed at this time

METAR text: EKVG 171350Z AUTO 14004KT 110V200 9999 BKN012/// 15/13 Q0986
Conditions at: EKVG (SORVAAG/VAGAR , DK) observed 1350 UTC 17 August 2019
Temperature: 15.0°C (59°F)
Dewpoint: 13.0°C (55°F) [RH = 88%]
Pressure (altimeter): 29.11 inches Hg (986.0 mb)
Winds: from the SE (140 degrees) at 5 MPH (4 knots; 2.1 m/s)
Visibility: 6 or more miles (10+ km)
Ceiling: 1200 feet AGL
Clouds: broken clouds at 1200 feet AGL
Weather: no significant weather observed at this time

METAR text: EKVG 171320Z AUTO 14005KT 9999 BKN012/// 15/13 Q0986
Conditions at: EKVG (SORVAAG/VAGAR , DK) observed 1320 UTC 17 August 2019
Temperature: 15.0°C (59°F)
Dewpoint: 13.0°C (55°F) [RH = 88%]
Pressure (altimeter): 29.11 inches Hg (986.0 mb)
Winds: from the SE (140 degrees) at 6 MPH (5 knots; 2.6 m/s)
Visibility: 6 or more miles (10+ km)
Ceiling: 1200 feet AGL
Clouds: broken clouds at 1200 feet AGL
Weather: no significant weather observed at this time

Forecast for: EKVG (SORVAAG/VAGAR , DK)
Text: TAF EKVG 181430Z 1815/1820 34010KT 9999 SCT003 BKN020
Forecast period: 1500 to 2000 UTC 18 August 2019
Forecast type: FROM: standard forecast or significant change
Winds: from the NNW (340 degrees) at 12 MPH (10 knots; 5.1 m/s)
Visibility: 6 or more miles 10+ km)
Ceiling: 2000 feet AGL
Clouds: scattered clouds at 300 feet AGL
broken clouds at 2000 feet AGL
Weather: no significant weather forecast for this period
Text: BECMG 1815/1817 30005KT 0300 FG VV001
Forecast period: 1500 to 2000 UTC 18 August 2019
Forecast type: BECOMING: Conditions expected to become as follows by 1700 UTC 18 August 2019
Winds: from the WNW (300 degrees) at 6 MPH (5 knots; 2.6 m/s)
Visibility: 0.19 miles (0.31 km)
Ceiling: indefinite ceiling with vertical visibility of 100 feet AGL
Clouds: obscured sky
Weather: FG  (fog)
Text: TEMPO 1817/1820 5000 -RADZ BCFG SCT003 BKN015
Forecast period: 1700 to 2000 UTC 18 August 2019
Forecast type: TEMPORARY: The following changes expected for less than half the time period
Visibility: 3 miles (5 km)
Ceiling: 1500 feet AGL
Clouds: scattered clouds at 300 feet AGL
broken clouds at 1500 feet AGL
Weather: -RA -DZ BCFG  (light rain, light drizzle, patches of fog)